createdAt,value
2019-01-26T00:09:15.997Z,34.27
2019-01-26T00:11:44.127Z,28.93
2019-01-26T00:14:11.706Z,31.47
2019-01-26T00:16:39.162Z,32.03
2019-01-26T00:19:07.273Z,30.07
2019-01-26T00:21:35.784Z,30.27
2019-01-26T00:24:04.196Z,32.43
2019-01-26T00:26:36.246Z,24.03
2019-01-26T00:29:01.714Z,22.93
2019-01-26T00:31:32.866Z,24.70
2019-01-26T00:34:01.025Z,28.63
2019-01-26T00:36:29.750Z,28.07
2019-01-26T00:38:57.629Z,30.27
2019-01-26T00:41:25.210Z,23.97
2019-01-26T00:43:52.809Z,28.40
2019-01-26T00:46:20.343Z,27.10
2019-01-26T00:48:47.860Z,29.10
2019-01-26T00:51:17.342Z,24.47
2019-01-26T00:53:44.778Z,30.83
2019-01-26T00:56:12.259Z,25.43
2019-01-26T00:58:39.728Z,21.73
2019-01-26T01:01:07.168Z,27.40
2019-01-26T01:03:34.978Z,21.87
2019-01-26T01:06:03.123Z,28.50
2019-01-26T01:08:30.606Z,23.53
2019-01-26T01:10:58.051Z,28.40
2019-01-26T01:13:26.107Z,25.43
2019-01-26T01:15:53.579Z,30.33
2019-01-26T01:18:21.046Z,25.73
2019-01-26T01:20:48.933Z,26.50
2019-01-26T01:23:16.696Z,28.50
2019-01-26T01:25:44.192Z,25.63
2019-01-26T01:28:11.999Z,28.17
2019-01-26T01:30:40.017Z,27.83
2019-01-26T01:33:08.035Z,33.20
2019-01-26T01:35:35.527Z,26.57
2019-01-26T01:38:03.472Z,28.43
2019-01-26T01:40:31.359Z,33.37
2019-01-26T01:42:59.349Z,25.57
2019-01-26T01:45:27.482Z,27.90
2019-01-26T01:47:55.327Z,29.60
2019-01-26T01:50:23.020Z,23.60
2019-01-26T01:52:50.629Z,25.83
2019-01-26T01:55:18.554Z,26.17
2019-01-26T01:57:46.002Z,24.70
2019-01-26T02:00:16.403Z,28.23
2019-01-26T02:02:43.899Z,25.90
2019-01-26T02:05:11.490Z,28.50
2019-01-26T02:07:39.055Z,30.67
2019-01-26T02:10:08.117Z,27.20
2019-01-26T02:12:35.579Z,24.60
2019-01-26T02:15:03.671Z,30.07
2019-01-26T02:17:31.150Z,26.97
2019-01-26T02:19:58.780Z,26.57
2019-01-26T02:22:26.666Z,24.13
2019-01-26T02:24:54.113Z,24.40
2019-01-26T02:27:21.694Z,23.73
2019-01-26T02:29:49.622Z,25.37
2019-01-26T02:32:18.696Z,23.77
2019-01-26T02:34:46.555Z,23.63
2019-01-26T02:37:14.471Z,22.90
2019-01-26T02:39:42.306Z,20.17
2019-01-26T02:42:10.130Z,22.30
2019-01-26T02:44:38.995Z,26.53
2019-01-26T02:47:06.869Z,24.93
2019-01-26T02:49:35.071Z,22.63
2019-01-26T02:52:02.559Z,22.27
2019-01-26T02:54:30.422Z,26.67
2019-01-26T02:56:58.842Z,24.77
2019-01-26T02:59:26.444Z,27.33
2019-01-26T03:01:53.921Z,25.80
2019-01-26T03:04:21.401Z,23.13
2019-01-26T03:06:49.573Z,22.40
2019-01-26T03:09:17.063Z,21.67
2019-01-26T03:11:44.858Z,25.80
2019-01-26T03:14:12.773Z,21.93
2019-01-26T03:16:41.317Z,23.00
2019-01-26T03:19:09.603Z,23.10
2019-01-26T03:21:38.510Z,22.27
2019-01-26T03:24:06.004Z,25.03
2019-01-26T03:26:33.940Z,21.63
2019-01-26T03:29:01.679Z,21.07
2019-01-26T03:31:29.354Z,23.07
2019-01-26T03:33:57.217Z,20.53
2019-01-26T03:36:24.906Z,21.40
2019-01-26T03:38:54.708Z,22.47
2019-01-26T03:41:22.448Z,20.80
2019-01-26T03:43:49.913Z,19.50
2019-01-26T03:46:17.428Z,23.83
2019-01-26T03:48:45.071Z,19.20
2019-01-26T03:51:15.307Z,19.90
2019-01-26T03:53:42.804Z,22.47
2019-01-26T03:56:10.268Z,21.73
2019-01-26T03:58:37.796Z,18.07
2019-01-26T04:01:05.272Z,19.73
2019-01-26T04:03:33.535Z,20.30
2019-01-26T04:06:01.436Z,19.33
2019-01-26T04:08:29.349Z,19.90
2019-01-26T04:10:56.807Z,22.93
2019-01-26T04:13:24.290Z,17.80
2019-01-26T04:15:51.862Z,23.53
2019-01-26T04:18:19.306Z,21.87
2019-01-26T04:20:48.018Z,22.70
2019-01-26T04:23:15.838Z,25.13
2019-01-26T04:25:43.324Z,23.20
2019-01-26T04:28:13.677Z,22.30
2019-01-26T04:30:41.208Z,24.53
2019-01-26T04:33:09.809Z,24.10
2019-01-26T04:35:37.683Z,26.43
2019-01-26T04:38:05.185Z,23.93
2019-01-26T04:40:32.788Z,22.87
2019-01-26T04:43:03.870Z,25.43
2019-01-26T04:45:31.863Z,25.83
2019-01-26T04:47:59.599Z,27.23
2019-01-26T04:50:27.121Z,23.33
2019-01-26T04:52:54.582Z,27.20
2019-01-26T04:55:22.582Z,27.87
2019-01-26T04:57:50.558Z,26.30
2019-01-26T05:00:23.793Z,24.03
2019-01-26T05:02:51.686Z,25.30
2019-01-26T05:05:19.153Z,23.17
2019-01-26T05:07:46.679Z,28.27
2019-01-26T05:10:15.301Z,25.80
2019-01-26T05:12:43.261Z,25.03
2019-01-26T05:15:11.901Z,25.83
2019-01-26T05:17:39.848Z,25.03
2019-01-26T05:20:10.671Z,23.17
2019-01-26T05:22:38.125Z,24.97
2019-01-26T05:25:05.882Z,24.57
2019-01-26T05:27:33.799Z,25.70
2019-01-26T05:30:01.847Z,25.10
2019-01-26T05:32:29.397Z,25.93
2019-01-26T05:34:56.893Z,23.93
2019-01-26T05:37:24.373Z,23.83
2019-01-26T05:39:52.389Z,25.63
2019-01-26T05:42:19.975Z,25.67
2019-01-26T05:44:47.514Z,23.33
2019-01-26T05:47:15.414Z,26.17
2019-01-26T05:49:43.278Z,25.47
2019-01-26T05:52:11.217Z,28.33
2019-01-26T05:54:39.344Z,27.40
2019-01-26T05:57:06.695Z,31.43
2019-01-26T05:59:34.193Z,27.53
2019-01-26T06:02:01.673Z,30.37
2019-01-26T06:04:29.160Z,28.80
2019-01-26T06:06:56.775Z,24.87
2019-01-26T06:09:24.823Z,28.30
2019-01-26T06:11:52.425Z,28.70
2019-01-26T06:14:19.909Z,29.00
2019-01-26T06:16:47.513Z,26.27
2019-01-26T06:19:15.303Z,27.30
2019-01-26T06:21:42.824Z,27.83
2019-01-26T06:24:10.290Z,26.20
2019-01-26T06:26:37.959Z,25.13
2019-01-26T06:29:05.485Z,24.07
2019-01-26T06:31:32.923Z,22.73
2019-01-26T06:34:00.772Z,22.20
2019-01-26T06:36:28.739Z,25.27
2019-01-26T06:38:56.195Z,23.83
2019-01-26T06:41:24.142Z,21.07
2019-01-26T06:43:51.655Z,24.53
2019-01-26T06:46:19.918Z,25.53
2019-01-26T06:48:49.340Z,20.90
2019-01-26T06:51:17.528Z,19.57
2019-01-26T06:53:45.033Z,22.37
2019-01-26T06:56:12.504Z,26.27
2019-01-26T06:58:40.020Z,21.30
2019-01-26T07:01:07.743Z,25.77
2019-01-26T07:03:35.254Z,24.10
2019-01-26T07:06:15.903Z,19.73
2019-01-26T07:08:43.626Z,24.17
2019-01-26T07:11:11.423Z,25.53
2019-01-26T07:13:38.910Z,25.37
2019-01-26T07:16:06.791Z,27.17
2019-01-26T07:18:35.710Z,22.53
2019-01-26T07:21:03.291Z,29.53
2019-01-26T07:23:31.081Z,23.93
2019-01-26T07:25:58.591Z,25.03
2019-01-26T07:28:26.044Z,22.40
2019-01-26T07:30:53.870Z,28.43
2019-01-26T07:33:21.689Z,25.70
2019-01-26T07:35:49.169Z,25.67
2019-01-26T07:38:16.722Z,27.27
2019-01-26T07:40:44.345Z,25.23
2019-01-26T07:43:11.858Z,25.67
2019-01-26T07:45:39.317Z,27.17
2019-01-26T07:48:06.870Z,25.43
2019-01-26T07:50:43.586Z,24.37
2019-01-26T07:53:11.554Z,31.00
2019-01-26T07:55:39.390Z,24.40
2019-01-26T07:58:07.139Z,25.37
2019-01-26T08:00:35.120Z,26.03
2019-01-26T08:03:03.244Z,25.10
2019-01-26T08:05:31.998Z,24.00
2019-01-26T08:07:59.348Z,26.30
2019-01-26T08:10:27.213Z,29.03
2019-01-26T08:12:55.042Z,21.77
2019-01-26T08:15:30.766Z,22.17
2019-01-26T08:17:58.946Z,23.60
2019-01-26T08:20:26.953Z,22.40
2019-01-26T08:22:54.662Z,23.27
2019-01-26T08:25:22.454Z,22.43
2019-01-26T08:27:50.304Z,23.33
2019-01-26T08:30:21.668Z,18.67
2019-01-26T08:32:49.869Z,25.63
2019-01-26T08:35:17.601Z,20.20
2019-01-26T08:38:30.742Z,21.73
2019-01-26T08:41:00.405Z,20.93
2019-01-26T08:43:32.242Z,19.27
2019-01-26T08:45:59.770Z,17.40
2019-01-26T08:48:31.234Z,17.10
2019-01-26T08:50:57.400Z,18.70
2019-01-26T08:53:24.843Z,17.77
2019-01-26T08:55:52.684Z,16.83
2019-01-26T08:58:20.154Z,18.20
2019-01-26T09:00:47.641Z,19.23
2019-01-26T09:03:37.621Z,18.17
2019-01-26T09:06:15.216Z,15.50
2019-01-26T09:08:43.044Z,18.43
2019-01-26T09:11:13.014Z,20.70
2019-01-26T09:13:40.484Z,15.80
2019-01-26T09:16:07.950Z,18.90
2019-01-26T09:18:38.962Z,18.73
2019-01-26T09:21:05.477Z,14.70
2019-01-26T09:23:33.294Z,19.87
2019-01-26T09:29:42.651Z,14.53
2019-01-26T09:32:11.282Z,18.03
2019-01-26T09:34:39.349Z,15.17
2019-01-26T09:37:07.222Z,16.23
2019-01-26T09:39:34.742Z,17.73
2019-01-26T09:42:02.679Z,14.77
2019-01-26T09:44:30.526Z,16.10
2019-01-26T09:46:58.022Z,18.10
2019-01-26T09:49:25.891Z,14.93
2019-01-26T09:51:54.090Z,15.77
2019-01-26T09:54:21.892Z,13.03
2019-01-26T09:56:50.204Z,14.53
2019-01-26T09:59:17.650Z,13.87
2019-01-26T10:01:50.538Z,16.27
2019-01-26T10:04:18.690Z,13.73
2019-01-26T10:06:46.779Z,12.90
2019-01-26T10:09:14.287Z,16.10
2019-01-26T10:11:42.815Z,12.43
2019-01-26T10:14:10.408Z,14.70
2019-01-26T10:16:38.539Z,13.93
2019-01-26T10:19:06.807Z,15.93
2019-01-26T10:21:34.892Z,14.20
2019-01-26T10:24:03.942Z,12.97
2019-01-26T10:26:32.243Z,13.67
2019-01-26T10:29:00.474Z,14.67
2019-01-26T10:31:28.451Z,14.93
2019-01-26T10:33:56.337Z,16.47
2019-01-26T10:36:29.291Z,14.90
2019-01-26T10:39:25.996Z,16.40
2019-01-26T10:42:16.393Z,13.90
2019-01-26T10:44:45.333Z,14.40
2019-01-26T10:47:13.231Z,14.37
2019-01-26T10:49:41.400Z,17.43
2019-01-26T10:52:09.667Z,17.43
2019-01-26T10:54:37.478Z,13.33
2019-01-26T10:57:05.971Z,12.77
2019-01-26T10:59:36.458Z,13.30
2019-01-26T11:02:06.854Z,14.80
2019-01-26T11:04:37.164Z,12.73
2019-01-26T11:07:05.001Z,11.97
2019-01-26T11:09:32.583Z,15.00
2019-01-26T11:12:00.834Z,11.57
2019-01-26T11:14:28.636Z,11.13
2019-01-26T11:16:56.824Z,8.43
2019-01-26T11:19:24.459Z,8.23
2019-01-26T11:21:52.829Z,9.07
2019-01-26T11:24:20.519Z,9.53
2019-01-26T11:26:49.381Z,7.40
2019-01-26T11:29:18.005Z,8.27
2019-01-26T11:31:46.263Z,8.27
2019-01-26T11:34:17.055Z,7.73
2019-01-26T11:36:44.969Z,9.30
2019-01-26T11:39:13.050Z,9.17
2019-01-26T11:41:40.883Z,8.90
2019-01-26T11:44:08.846Z,11.40
2019-01-26T11:50:06.316Z,8.67
2019-01-26T11:52:34.719Z,7.43
2019-01-26T11:55:31.186Z,9.17
2019-01-26T11:57:59.714Z,7.57
2019-01-26T12:00:59.142Z,5.30
2019-01-26T12:03:29.482Z,8.03
2019-01-26T12:09:16.255Z,5.93
2019-01-26T12:11:43.641Z,5.77
2019-01-26T12:14:11.834Z,6.87
2019-01-26T12:16:39.435Z,9.43
2019-01-26T12:19:11.454Z,8.03
2019-01-26T12:21:40.211Z,7.27
2019-01-26T12:24:07.685Z,6.70
2019-01-26T12:26:35.933Z,7.87
2019-01-26T12:29:03.596Z,9.63
2019-01-26T12:31:31.257Z,8.50
2019-01-26T12:33:59.068Z,9.77
2019-01-26T12:36:27.538Z,8.13
2019-01-26T12:38:55.157Z,6.73
2019-01-26T12:41:22.978Z,6.40
2019-01-26T12:43:51.148Z,6.87
2019-01-26T12:46:19.125Z,8.23
2019-01-26T12:48:47.521Z,7.00
2019-01-26T12:51:15.114Z,11.67
2019-01-26T12:53:43.146Z,8.63
2019-01-26T12:56:10.879Z,7.67
2019-01-26T12:58:38.695Z,7.57
2019-01-26T13:01:06.467Z,7.37
2019-01-26T13:03:33.953Z,8.33
2019-01-26T13:06:01.801Z,7.83
2019-01-26T13:08:29.224Z,8.77
2019-01-26T13:10:59.253Z,6.60
2019-01-26T13:16:57.396Z,7.70
2019-01-26T13:19:26.446Z,7.37
2019-01-26T13:21:55.230Z,8.20
2019-01-26T13:24:24.408Z,8.17
2019-01-26T13:26:55.231Z,10.10
2019-01-26T13:29:23.990Z,8.07
2019-01-26T13:31:52.953Z,7.17
2019-01-26T13:34:22.271Z,8.07
2019-01-26T13:36:51.007Z,7.33
2019-01-26T13:53:14.568Z,9.00
2019-01-26T13:55:42.714Z,10.60
2019-01-26T13:58:15.128Z,8.63
2019-01-26T14:00:43.221Z,7.43
2019-01-26T14:03:11.409Z,6.43
2019-01-26T14:05:39.782Z,8.10
2019-01-26T14:08:07.934Z,9.57
2019-01-26T14:10:35.688Z,7.97
2019-01-26T14:13:04.182Z,9.03
2019-01-26T14:15:32.199Z,9.37
2019-01-26T14:18:01.615Z,7.37
2019-01-26T14:20:29.803Z,10.17
2019-01-26T14:22:57.856Z,9.27
2019-01-26T14:25:25.989Z,9.10
2019-01-26T14:27:54.967Z,8.47
2019-01-26T14:30:36.025Z,7.67
2019-01-26T14:33:06.374Z,9.30
2019-01-26T14:46:15.189Z,9.27
2019-01-26T14:48:43.281Z,7.10
2019-01-26T14:51:11.854Z,8.77
2019-01-26T14:53:39.925Z,8.10
2019-01-26T14:56:07.417Z,8.27
2019-01-26T14:58:36.693Z,6.73
2019-01-26T15:01:05.131Z,6.07
2019-01-26T15:03:32.744Z,7.83
2019-01-26T15:06:00.719Z,9.30
2019-01-26T15:20:06.096Z,7.70
2019-01-26T15:22:34.409Z,9.57
2019-01-26T15:25:01.872Z,9.40
2019-01-26T15:27:29.326Z,9.23
2019-01-26T15:29:56.762Z,9.33
2019-01-26T15:32:24.176Z,9.53
2019-01-26T15:34:51.938Z,8.37
2019-01-26T15:37:20.054Z,9.13
2019-01-26T15:39:48.066Z,8.13
2019-01-26T15:42:15.870Z,10.67
2019-01-26T15:44:43.609Z,13.03
2019-01-26T15:47:11.046Z,12.30
2019-01-26T15:49:38.726Z,14.03
2019-01-26T15:52:06.192Z,14.40
2019-01-26T15:54:34.312Z,11.50
2019-01-26T15:57:02.049Z,12.30
2019-01-26T15:59:29.902Z,13.27
2019-01-26T16:01:57.610Z,15.33
2019-01-26T16:04:25.359Z,15.50
2019-01-26T16:06:52.870Z,12.50
2019-01-26T16:09:20.279Z,14.03
2019-01-26T16:11:48.379Z,15.60
2019-01-26T16:14:15.854Z,13.93
2019-01-26T16:16:43.282Z,15.93
2019-01-26T16:19:10.714Z,15.70
2019-01-26T16:21:38.331Z,14.77
2019-01-26T16:24:06.151Z,16.30
2019-01-26T16:48:31.349Z,18.90
2019-01-26T16:51:00.533Z,18.00
2019-01-26T16:53:29.814Z,16.07
2019-01-26T16:55:59.233Z,19.83
2019-01-26T16:58:29.139Z,17.67
2019-01-26T17:01:00.367Z,19.20
2019-01-26T17:03:30.111Z,19.53
2019-01-26T17:05:59.886Z,19.37
2019-01-26T17:08:29.618Z,17.20
2019-01-26T17:10:59.442Z,22.77
2019-01-26T17:13:30.143Z,24.03
2019-01-26T17:15:59.661Z,17.10
2019-01-26T17:18:30.254Z,19.00
2019-01-26T17:20:59.864Z,20.47
2019-01-26T17:23:31.587Z,20.27
2019-01-26T17:26:00.666Z,18.43
2019-01-26T17:28:28.415Z,18.27
2019-01-26T17:30:57.545Z,17.80
2019-01-26T17:33:27.195Z,17.73
2019-01-26T17:35:55.618Z,17.30
2019-01-26T17:38:24.213Z,14.97
2019-01-26T17:40:54.433Z,18.03
2019-01-26T17:43:22.700Z,18.87
2019-01-26T17:45:50.911Z,17.23
2019-01-26T17:48:21.258Z,16.20
2019-01-26T17:50:50.150Z,14.07
2019-01-26T17:53:20.134Z,16.40
2019-01-26T17:55:49.119Z,17.77
2019-01-26T17:58:20.603Z,12.73
2019-01-26T18:00:59.031Z,16.27
2019-01-26T18:03:29.899Z,18.27
2019-01-26T18:06:02.134Z,17.20
2019-01-26T18:08:31.426Z,13.93
2019-01-26T18:11:01.313Z,14.23
2019-01-26T18:13:32.326Z,13.63
2019-01-26T18:16:01.593Z,16.03
2019-01-26T18:18:31.726Z,16.50
2019-01-26T18:21:02.593Z,15.67
2019-01-26T18:23:33.121Z,15.40
2019-01-26T18:26:02.579Z,17.17
2019-01-26T18:28:32.839Z,24.57
2019-01-26T18:31:04.212Z,24.20
2019-01-26T18:33:34.766Z,21.07
2019-01-26T18:36:05.698Z,22.17
2019-01-26T18:38:36.489Z,20.27
2019-01-26T18:41:09.114Z,21.67
2019-01-26T18:43:41.625Z,21.77
2019-01-26T18:46:12.507Z,18.87
2019-01-26T18:48:42.817Z,20.63
2019-01-26T18:51:13.341Z,18.67
2019-01-26T18:53:43.138Z,20.70
2019-01-26T18:56:13.267Z,16.47
2019-01-26T18:58:46.649Z,20.67
2019-01-26T19:01:17.815Z,20.17
2019-01-26T19:04:11.846Z,17.27
2019-01-26T19:06:46.010Z,14.40
2019-01-26T19:09:17.777Z,20.40
2019-01-26T19:11:48.822Z,18.80
2019-01-26T19:14:20.297Z,14.57
2019-01-26T19:16:50.691Z,17.53
2019-01-26T19:19:23.189Z,15.77
2019-01-26T19:21:55.305Z,16.93
2019-01-26T19:24:26.534Z,15.67
2019-01-26T19:26:57.883Z,13.83
2019-01-26T19:29:27.947Z,13.20
2019-01-26T19:31:59.527Z,14.27
2019-01-26T19:34:31.311Z,11.77
2019-01-26T19:37:09.127Z,14.70
2019-01-26T19:39:37.045Z,14.27
2019-01-26T19:42:07.784Z,12.43
2019-01-26T19:44:39.368Z,11.37
2019-01-26T19:47:15.952Z,11.87
2019-01-26T19:49:53.590Z,14.53
2019-01-26T19:52:25.661Z,13.97
2019-01-26T19:54:58.346Z,16.27
2019-01-26T19:57:30.917Z,9.80
2019-01-26T20:00:11.969Z,13.43
2019-01-26T20:02:53.695Z,12.57
2019-01-26T20:05:25.166Z,13.00
2019-01-26T20:07:58.846Z,17.63
2019-01-26T20:10:30.002Z,19.33
2019-01-26T20:13:01.348Z,12.40
2019-01-26T20:15:37.788Z,15.50
2019-01-26T20:18:09.932Z,12.30
2019-01-26T20:20:46.610Z,12.60
2019-01-26T20:23:20.227Z,9.27
2019-01-26T20:26:03.305Z,12.17
2019-01-26T20:28:53.247Z,10.33
2019-01-26T20:31:31.128Z,12.00
2019-01-26T20:34:03.182Z,11.03
2019-01-26T20:36:37.847Z,11.57
2019-01-26T20:39:11.810Z,12.63
2019-01-26T20:41:55.713Z,12.13
2019-01-26T20:44:29.498Z,11.30
2019-01-26T20:47:01.302Z,10.10
2019-01-26T20:49:33.330Z,14.80
2019-01-26T20:52:05.678Z,11.93
2019-01-26T20:54:37.538Z,12.67
2019-01-26T20:57:08.284Z,13.53
2019-01-26T20:59:40.204Z,12.40
2019-01-26T21:02:13.633Z,13.27
2019-01-26T21:04:45.287Z,11.90
2019-01-26T21:07:21.983Z,12.73
2019-01-26T21:09:56.458Z,15.70
2019-01-26T21:12:27.726Z,13.47
2019-01-26T21:43:28.255Z,11.57
2019-01-26T21:46:03.921Z,8.10
2019-01-26T21:48:41.354Z,9.20
2019-01-26T21:51:08.960Z,11.40
2019-01-26T21:53:36.713Z,10.73
2019-01-26T21:56:04.800Z,9.37
2019-01-26T21:58:35.829Z,8.87
2019-01-26T22:01:11.731Z,10.17
2019-01-26T22:03:45.539Z,7.30
2019-01-26T22:06:16.953Z,7.97
2019-01-26T22:08:58.379Z,8.07
2019-01-26T22:11:32.854Z,10.53
2019-01-26T22:14:00.717Z,7.37
2019-01-26T22:16:30.945Z,10.30
2019-01-26T22:18:58.817Z,8.23
2019-01-26T22:21:26.358Z,8.33
2019-01-26T22:23:53.820Z,9.80
2019-01-26T22:26:21.851Z,9.70
2019-01-26T22:28:49.690Z,8.07
2019-01-26T22:31:17.465Z,10.87
2019-01-26T22:33:46.421Z,8.40
2019-01-26T22:36:13.909Z,9.07
2019-01-26T22:38:50.683Z,7.40
2019-01-26T22:41:18.178Z,9.50
2019-01-26T22:43:45.677Z,10.97
2019-01-26T22:46:27.870Z,10.73
2019-01-26T22:48:56.017Z,12.23
2019-01-26T22:51:23.470Z,10.67
2019-01-26T22:53:51.014Z,12.33
2019-01-26T22:56:38.836Z,12.23
2019-01-26T22:59:08.686Z,14.53
2019-01-26T23:01:44.597Z,11.50
2019-01-26T23:04:23.151Z,17.63
2019-01-26T23:07:23.456Z,14.83
2019-01-26T23:10:47.398Z,15.57
2019-01-26T23:13:51.493Z,11.43
2019-01-26T23:16:56.363Z,15.73
2019-01-26T23:20:01.090Z,14.50
2019-01-26T23:32:48.497Z,14.13
2019-01-26T23:35:22.522Z,16.07
2019-01-26T23:51:56.435Z,14.90
2019-01-26T23:54:24.624Z,11.83
2019-01-26T23:56:53.645Z,12.90
2019-01-26T23:59:21.564Z,12.70
